Time;durP1;ratioP1;P1;durP2;ratioP2;P2;SDS_P1;SDS_P2;PMS_P1;PMS_P2;Temp;Humidity;BMP_temperature;BMP_pressure;BME280_temperature;BME280_humidity;BME280_pressure;Samples;Min_cycle;Max_cycle;Signal;HPM_P1;HPM_P2
2022/10/17 00:00:26;;;;;;;12.82;7.13;;;12.40;99.90;;;;;;4988195;28;20104;-72
2022/10/17 00:02:54;;;;;;;12.32;6.65;;;12.40;99.90;;;;;;4973699;28;20442;-72
2022/10/17 00:05:20;;;;;;;17.30;6.25;;;12.40;99.90;;;;;;4990276;28;20069;-72
2022/10/17 00:07:46;;;;;;;13.07;6.50;;;12.40;99.90;;;;;;4989149;28;20478;-72
2022/10/17 00:10:12;;;;;;;12.68;7.07;;;12.40;99.90;;;;;;4959009;28;20033;-72
2022/10/17 00:12:38;;;;;;;11.43;6.70;;;12.40;99.90;;;;;;4974877;28;20049;-72
2022/10/17 00:15:05;;;;;;;9.88;6.72;;;12.40;99.90;;;;;;4990627;28;20080;-72
2022/10/17 00:17:32;;;;;;;10.93;7.20;;;12.40;99.90;;;;;;4987006;28;20048;-72
2022/10/17 00:19:59;;;;;;;11.77;7.35;;;12.30;99.90;;;;;;4990121;28;20033;-72
2022/10/17 00:22:25;;;;;;;12.70;6.35;;;12.30;99.90;;;;;;4991499;28;20040;-72
2022/10/17 00:24:51;;;;;;;12.15;6.25;;;12.30;99.90;;;;;;4990311;28;20050;-72
2022/10/17 00:27:16;;;;;;;13.40;7.22;;;12.30;99.90;;;;;;4972434;28;20045;-72
2022/10/17 00:29:46;;;;;;;10.23;7.35;;;12.30;99.90;;;;;;4958374;28;20102;-72
2022/10/17 00:32:12;;;;;;;12.15;6.80;;;12.30;99.90;;;;;;4988551;28;20034;-72
2022/10/17 00:34:37;;;;;;;8.57;6.68;;;12.30;99.90;;;;;;4988656;28;20095;-72
2022/10/17 00:37:03;;;;;;;9.48;6.55;;;12.30;99.90;;;;;;4956212;28;20042;-72
2022/10/17 00:39:29;;;;;;;11.57;6.75;;;12.30;99.90;;;;;;4968665;28;20053;-72
2022/10/17 00:41:54;;;;;;;9.07;6.53;;;12.30;99.90;;;;;;4971290;28;20404;-72
2022/10/17 00:44:29;;;;;;;10.73;7.10;;;12.30;99.90;;;;;;4970165;28;20071;-72
2022/10/17 00:47:01;;;;;;;11.82;6.68;;;12.30;99.90;;;;;;4988203;28;20037;-72
2022/10/17 00:49:31;;;;;;;11.02;6.65;;;12.30;99.90;;;;;;4987368;28;20271;-72
2022/10/17 00:52:17;;;;;;;13.40;6.72;;;12.30;99.90;;;;;;4990075;28;20494;-72
2022/10/17 00:54:50;;;;;;;11.55;6.72;;;12.30;99.90;;;;;;4987129;28;20042;-72
2022/10/17 00:57:17;;;;;;;8.38;6.45;;;12.30;99.90;;;;;;5005321;28;20132;-72
2022/10/17 00:59:49;;;;;;;13.07;7.72;;;12.30;99.90;;;;;;4971148;28;20041;-72
2022/10/17 01:02:19;;;;;;;13.85;7.20;;;12.30;99.90;;;;;;4975472;28;20050;-72
2022/10/17 01:04:49;;;;;;;11.05;7.00;;;12.30;99.90;;;;;;4989409;28;20129;-72
2022/10/17 01:07:14;;;;;;;9.48;6.72;;;12.30;99.90;;;;;;4974440;28;20064;-72
2022/10/17 01:09:41;;;;;;;12.68;6.53;;;12.30;99.90;;;;;;4987038;28;20553;-72
2022/10/17 01:12:28;;;;;;;11.20;6.60;;;12.30;99.90;;;;;;4971350;28;21305;-72
2022/10/17 01:15:20;;;;;;;11.63;6.80;;;12.30;99.90;;;;;;4986049;28;20034;-72
2022/10/17 01:18:13;;;;;;;16.50;8.40;;;12.30;99.90;;;;;;5003778;28;20077;-72
2022/10/17 01:20:41;;;;;;;7.20;6.50;;;12.30;99.90;;;;;;4989503;28;20430;-72
2022/10/17 01:23:27;;;;;;;10.88;6.53;;;12.30;99.90;;;;;;4973174;28;20395;-72
2022/10/17 01:25:58;;;;;;;14.20;7.05;;;12.30;99.90;;;;;;4984536;28;20534;-71
2022/10/17 01:28:30;;;;;;;11.57;6.53;;;12.30;99.90;;;;;;4989807;28;20403;-71
2022/10/17 01:31:14;;;;;;;8.25;6.22;;;12.30;99.90;;;;;;4987871;28;20293;-71
2022/10/17 01:33:55;;;;;;;10.55;6.93;;;12.30;99.90;;;;;;4989147;28;20045;-71
2022/10/17 01:36:27;;;;;;;10.20;7.45;;;12.20;99.90;;;;;;4985962;28;20083;-72
2022/10/17 01:39:18;;;;;;;11.32;6.80;;;12.20;99.90;;;;;;4988987;28;20061;-72
2022/10/17 01:41:50;;;;;;;10.68;6.78;;;12.10;99.90;;;;;;4973419;28;20056;-72
2022/10/17 01:44:28;;;;;;;11.65;7.20;;;12.10;99.90;;;;;;4986282;28;20050;-72
2022/10/17 01:47:02;;;;;;;9.95;6.68;;;12.00;99.90;;;;;;4987733;28;20135;-72
2022/10/17 01:49:30;;;;;;;14.90;6.90;;;12.00;99.90;;;;;;4988715;28;20399;-72
2022/10/17 01:52:02;;;;;;;10.45;7.20;;;12.00;99.90;;;;;;4986506;28;20087;-72
2022/10/17 01:54:36;;;;;;;9.88;7.32;;;12.00;99.90;;;;;;4988096;28;20495;-72
2022/10/17 01:57:06;;;;;;;11.65;6.75;;;11.90;99.90;;;;;;4973032;28;20543;-72
2022/10/17 01:59:39;;;;;;;11.38;7.30;;;11.90;99.90;;;;;;4984794;28;20053;-72
2022/10/17 02:02:11;;;;;;;9.80;7.43;;;12.00;99.90;;;;;;4974464;28;20680;-71
2022/10/17 02:04:37;;;;;;;12.32;7.25;;;12.00;99.90;;;;;;4985006;28;20038;-72
2022/10/17 02:07:11;;;;;;;9.13;7.25;;;11.90;99.90;;;;;;4986904;28;20045;-71
2022/10/17 02:09:37;;;;;;;14.65;8.00;;;12.00;99.90;;;;;;4956126;28;20056;-72
2022/10/17 02:12:15;;;;;;;10.35;8.35;;;12.00;99.90;;;;;;4970875;28;20026;-72
2022/10/17 02:14:54;;;;;;;10.90;8.52;;;11.90;99.90;;;;;;4986866;28;20050;-72
2022/10/17 02:17:55;;;;;;;12.77;8.27;;;12.00;99.90;;;;;;4988314;28;20394;-71
2022/10/17 02:20:32;;;;;;;10.70;7.78;;;11.90;99.90;;;;;;4930213;29;20045;-72
2022/10/17 02:23:17;;;;;;;10.48;7.93;;;11.90;99.90;;;;;;4976289;28;20041;-72
2022/10/17 02:25:58;;;;;;;11.00;7.82;;;12.00;99.90;;;;;;4987395;28;20129;-72
2022/10/17 02:28:38;;;;;;;11.57;7.93;;;11.90;99.90;;;;;;4986692;28;20913;-72
2022/10/17 02:31:22;;;;;;;11.65;8.38;;;11.90;99.90;;;;;;4970367;28;20076;-71
2022/10/17 02:33:48;;;;;;;11.20;8.02;;;11.90;99.90;;;;;;4984130;28;20042;-72
2022/10/17 02:36:37;;;;;;;10.45;8.20;;;11.90;99.90;;;;;;4968847;28;20092;-71
2022/10/17 02:39:05;;;;;;;14.13;9.68;;;11.90;99.90;;;;;;4987468;28;20060;-72
2022/10/17 02:41:32;;;;;;;9.40;8.25;;;11.90;99.90;;;;;;4954852;28;20049;-71
2022/10/17 02:43:58;;;;;;;11.10;8.43;;;11.90;99.90;;;;;;4970330;28;20037;-71
2022/10/17 02:46:27;;;;;;;12.95;8.73;;;11.90;99.90;;;;;;4972230;28;20049;-72
2022/10/17 02:49:05;;;;;;;12.32;8.82;;;11.90;99.90;;;;;;4955686;28;20487;-72
2022/10/17 02:51:48;;;;;;;13.65;8.77;;;11.90;99.90;;;;;;4986754;28;20064;-72
2022/10/17 02:54:36;;;;;;;11.27;9.05;;;11.90;99.90;;;;;;4986219;28;20096;-72
2022/10/17 02:57:20;;;;;;;10.88;9.00;;;11.90;99.90;;;;;;5002039;28;20136;-72
2022/10/17 02:59:47;;;;;;;11.63;9.02;;;11.90;99.90;;;;;;4970123;28;20053;-72
2022/10/17 03:02:13;;;;;;;11.93;9.80;;;11.90;99.90;;;;;;4987022;28;20511;-71
2022/10/17 03:04:44;;;;;;;12.68;9.43;;;11.90;99.90;;;;;;4984245;28;20133;-71
2022/10/17 03:07:10;;;;;;;11.35;9.27;;;11.90;99.90;;;;;;4985768;28;20188;-72
2022/10/17 03:09:36;;;;;;;13.38;8.68;;;11.90;99.90;;;;;;4984707;28;20132;-72
2022/10/17 03:12:01;;;;;;;13.23;9.45;;;12.00;99.90;;;;;;4970425;28;20049;-72
2022/10/17 03:14:27;;;;;;;15.02;9.40;;;11.90;99.90;;;;;;4968359;28;20431;-72
2022/10/17 03:16:53;;;;;;;12.88;8.98;;;11.90;99.90;;;;;;5001287;28;20546;-72
2022/10/17 03:19:18;;;;;;;13.30;9.05;;;11.90;99.90;;;;;;4971638;28;20041;-72
2022/10/17 03:21:44;;;;;;;11.05;9.95;;;11.90;99.90;;;;;;4971449;28;20042;-71
2022/10/17 03:24:10;;;;;;;14.00;9.90;;;11.90;99.90;;;;;;4985718;28;20034;-71
2022/10/17 03:26:36;;;;;;;13.38;10.23;;;11.90;99.90;;;;;;4972207;28;20038;-71
2022/10/17 03:29:02;;;;;;;14.25;9.75;;;11.90;99.90;;;;;;4986082;28;20446;-72
2022/10/17 03:31:28;;;;;;;10.90;9.75;;;11.90;99.90;;;;;;4984709;28;20037;-72
2022/10/17 03:33:54;;;;;;;13.75;10.38;;;11.90;99.90;;;;;;4985926;28;20046;-72
2022/10/17 03:36:20;;;;;;;12.98;10.48;;;11.90;99.90;;;;;;4989071;28;20125;-71
2022/10/17 03:38:46;;;;;;;12.32;10.93;;;11.90;99.90;;;;;;5014198;22;20363;-71
2022/10/17 03:41:12;;;;;;;16.20;12.20;;;11.90;99.90;;;;;;4998247;28;20053;-71
2022/10/17 03:43:38;;;;;;;16.70;12.27;;;11.90;99.90;;;;;;5015631;28;20041;-71
2022/10/17 03:46:05;;;;;;;15.30;12.88;;;12.00;99.90;;;;;;5014074;28;20042;-71
2022/10/17 03:48:31;;;;;;;16.30;10.75;;;12.00;99.90;;;;;;5010056;28;20065;-72
2022/10/17 03:51:06;;;;;;;21.40;13.10;;;12.00;99.90;;;;;;5016431;28;20037;-71
2022/10/17 03:53:32;;;;;;;18.83;13.05;;;12.00;99.90;;;;;;5013605;28;20041;-71
2022/10/17 03:56:09;;;;;;;20.58;13.60;;;12.00;99.90;;;;;;5001813;28;20087;-71
2022/10/17 03:58:35;;;;;;;15.35;12.57;;;12.10;99.90;;;;;;5014837;28;20057;-71
2022/10/17 04:01:06;;;;;;;18.92;13.43;;;12.10;99.90;;;;;;5002277;28;20506;-71
2022/10/17 04:03:31;;;;;;;18.75;13.55;;;12.20;99.90;;;;;;4978035;28;20124;-71
2022/10/17 04:06:01;;;;;;;25.50;14.50;;;12.20;99.90;;;;;;5016988;28;20179;-71
2022/10/17 04:08:27;;;;;;;20.65;13.23;;;12.30;99.90;;;;;;5031423;28;20040;-71
2022/10/17 04:10:58;;;;;;;17.15;13.60;;;12.30;99.90;;;;;;5016561;28;20052;-72
2022/10/17 04:13:23;;;;;;;22.27;14.77;;;12.40;99.90;;;;;;4992095;28;20052;-71
2022/10/17 04:15:57;;;;;;;20.95;13.90;;;12.40;99.90;;;;;;5012756;28;20030;-71
2022/10/17 04:18:24;;;;;;;17.10;14.10;;;12.40;99.90;;;;;;5014782;28;20047;-72
2022/10/17 04:20:50;;;;;;;22.58;15.15;;;12.40;99.90;;;;;;5015598;28;20036;-71
2022/10/17 04:23:15;;;;;;;23.73;15.27;;;12.40;99.90;;;;;;5010752;28;20482;-72
2022/10/17 04:25:41;;;;;;;21.13;15.23;;;12.40;99.90;;;;;;5016743;28;20047;-72
2022/10/17 04:28:07;;;;;;;19.70;14.55;;;12.50;99.90;;;;;;5015255;28;20053;-71
2022/10/17 04:30:32;;;;;;;22.92;15.70;;;12.60;99.90;;;;;;5017775;28;20469;-71
2022/10/17 04:32:58;;;;;;;21.48;15.35;;;12.60;99.90;;;;;;4977923;28;20123;-71
2022/10/17 04:35:24;;;;;;;26.85;17.85;;;12.70;99.90;;;;;;4982712;28;20067;-71
2022/10/17 04:37:49;;;;;;;22.15;17.17;;;12.70;99.90;;;;;;5016010;28;20060;-72
2022/10/17 04:40:15;;;;;;;24.70;17.10;;;12.70;99.90;;;;;;5016013;28;20506;-71
2022/10/17 04:42:41;;;;;;;20.63;16.02;;;12.80;99.90;;;;;;4998887;28;20041;-71
2022/10/17 04:45:07;;;;;;;27.00;16.42;;;12.80;99.90;;;;;;5011728;28;20072;-71
2022/10/17 04:47:33;;;;;;;25.42;16.25;;;12.80;99.90;;;;;;5011902;28;20071;-71
2022/10/17 04:49:59;;;;;;;25.33;15.30;;;12.80;99.90;;;;;;5016921;28;20037;-71
2022/10/17 04:52:24;;;;;;;22.23;15.65;;;12.80;99.90;;;;;;5013841;28;20503;-71
2022/10/17 04:54:51;;;;;;;22.55;15.60;;;12.80;99.90;;;;;;4998270;28;20064;-71
2022/10/17 04:57:17;;;;;;;19.30;15.00;;;12.80;99.90;;;;;;4998105;28;20039;-71
2022/10/17 04:59:43;;;;;;;23.10;16.50;;;12.80;99.90;;;;;;4999392;28;20410;-71
2022/10/17 05:02:08;;;;;;;20.40;15.20;;;12.80;99.90;;;;;;5013266;28;20045;-71
2022/10/17 05:04:34;;;;;;;22.85;15.35;;;12.80;99.90;;;;;;5012834;28;20042;-71
2022/10/17 05:07:00;;;;;;;22.15;16.83;;;12.80;99.90;;;;;;4998146;28;20443;-71
2022/10/17 05:09:26;;;;;;;19.95;15.15;;;12.80;99.90;;;;;;5013817;28;20509;-71
2022/10/17 05:11:52;;;;;;;23.38;15.05;;;12.80;99.90;;;;;;5033759;28;20160;-72
2022/10/17 05:14:18;;;;;;;21.75;15.00;;;12.80;99.90;;;;;;4993657;28;20077;-72
2022/10/17 05:16:44;;;;;;;23.58;16.15;;;12.80;99.90;;;;;;5017013;28;20037;-71
2022/10/17 05:19:10;;;;;;;21.98;15.85;;;12.80;99.90;;;;;;5013343;28;20045;-72
2022/10/17 05:21:36;;;;;;;24.10;16.48;;;12.90;99.90;;;;;;4984912;28;20470;-71
2022/10/17 05:24:05;;;;;;;23.40;15.35;;;12.90;99.90;;;;;;5008775;28;20302;-71
2022/10/17 05:26:31;;;;;;;24.23;16.70;;;12.90;99.90;;;;;;5011178;28;20088;-71
2022/10/17 05:29:01;;;;;;;24.90;16.23;;;12.90;99.90;;;;;;4996861;28;20123;-71
2022/10/17 05:31:28;;;;;;;27.17;17.08;;;13.00;99.90;;;;;;5013756;28;20460;-72
2022/10/17 05:33:54;;;;;;;23.45;16.92;;;13.00;99.90;;;;;;5012620;28;20036;-72
2022/10/17 05:36:19;;;;;;;22.15;16.60;;;13.00;99.90;;;;;;5012642;28;20388;-72
2022/10/17 05:38:50;;;;;;;23.42;16.70;;;13.00;99.90;;;;;;5012754;28;20045;-72
2022/10/17 05:41:15;;;;;;;22.52;16.85;;;13.00;99.90;;;;;;4999482;28;20126;-72
2022/10/17 05:43:41;;;;;;;24.77;17.33;;;13.00;99.90;;;;;;4996737;28;20057;-71
2022/10/17 05:46:10;;;;;;;24.80;16.38;;;13.00;99.90;;;;;;4998555;28;20099;-72
2022/10/17 05:48:36;;;;;;;25.45;16.40;;;13.00;99.90;;;;;;5011177;28;20052;-72
2022/10/17 05:51:05;;;;;;;25.38;17.88;;;13.10;99.90;;;;;;5031801;28;20033;-71
2022/10/17 05:53:32;;;;;;;26.70;17.55;;;13.10;99.90;;;;;;5012611;28;20044;-71
2022/10/17 05:55:59;;;;;;;22.98;17.58;;;13.10;99.90;;;;;;5012898;28;20045;-71
2022/10/17 05:58:25;;;;;;;22.05;17.38;;;13.10;99.90;;;;;;4994202;28;20033;-72
2022/10/17 06:00:56;;;;;;;25.70;16.80;;;13.20;99.90;;;;;;5008944;28;20041;-72
2022/10/17 06:03:22;;;;;;;24.13;17.20;;;13.30;99.90;;;;;;4991361;28;20502;-72
2022/10/17 06:05:48;;;;;;;25.30;16.90;;;13.20;99.90;;;;;;4993442;28;20037;-72
2022/10/17 06:08:16;;;;;;;26.52;18.45;;;13.20;99.90;;;;;;5013579;28;20064;-72
2022/10/17 06:10:42;;;;;;;25.60;18.40;;;13.30;99.90;;;;;;5015220;28;20037;-72
2022/10/17 06:13:10;;;;;;;25.50;17.52;;;13.20;99.90;;;;;;5011325;28;20045;-72
2022/10/17 06:15:36;;;;;;;27.60;18.10;;;13.30;99.90;;;;;;5014697;28;20381;-72
2022/10/17 06:18:02;;;;;;;29.13;17.70;;;13.30;99.90;;;;;;5011194;28;20029;-72
2022/10/17 06:20:27;;;;;;;25.10;18.08;;;13.30;99.90;;;;;;4978396;28;20057;-72
2022/10/17 06:22:53;;;;;;;28.48;17.80;;;13.40;99.90;;;;;;4996387;28;20033;-72
2022/10/17 06:25:19;;;;;;;30.88;18.38;;;13.40;99.90;;;;;;4995194;28;20045;-72
2022/10/17 06:27:44;;;;;;;25.65;16.95;;;13.50;99.90;;;;;;5010479;28;20029;-72
2022/10/17 06:30:10;;;;;;;24.40;17.58;;;13.40;99.90;;;;;;5012534;28;20477;-72
2022/10/17 06:32:36;;;;;;;26.75;17.58;;;13.50;99.90;;;;;;4997775;28;20041;-72
2022/10/17 06:35:01;;;;;;;24.98;16.80;;;13.50;99.90;;;;;;4995137;28;20068;-72
2022/10/17 06:37:31;;;;;;;21.98;15.93;;;13.50;99.90;;;;;;4982459;28;20044;-72
2022/10/17 06:39:57;;;;;;;26.50;16.95;;;13.50;99.90;;;;;;5008388;28;20042;-72
2022/10/17 06:42:23;;;;;;;23.45;15.93;;;13.60;99.90;;;;;;4994054;28;20134;-72
2022/10/17 06:44:49;;;;;;;22.65;14.52;;;13.60;99.90;;;;;;4995124;28;20046;-71
2022/10/17 06:47:14;;;;;;;23.52;15.57;;;13.60;99.90;;;;;;4995200;28;20044;-72
2022/10/17 06:49:40;;;;;;;23.50;16.33;;;13.70;99.90;;;;;;5011236;28;20120;-72
2022/10/17 06:52:06;;;;;;;26.15;16.38;;;13.70;99.90;;;;;;4995738;28;20430;-72
2022/10/17 06:54:32;;;;;;;24.15;16.10;;;13.70;99.90;;;;;;5012034;28;20045;-72
2022/10/17 06:56:57;;;;;;;25.08;16.63;;;13.70;99.90;;;;;;4979072;28;20034;-72
2022/10/17 06:59:23;;;;;;;20.38;14.40;;;13.80;99.90;;;;;;5012851;28;20096;-72
2022/10/17 07:01:51;;;;;;;26.38;15.93;;;13.90;99.90;;;;;;4998083;28;20086;-72
2022/10/17 07:04:17;;;;;;;23.40;15.15;;;13.90;99.90;;;;;;4979059;28;20049;-72
2022/10/17 07:06:43;;;;;;;20.85;15.05;;;14.00;99.90;;;;;;5012344;28;20049;-72
2022/10/17 07:09:09;;;;;;;23.05;15.13;;;14.00;99.90;;;;;;4979912;28;20073;-72
2022/10/17 07:11:35;;;;;;;19.33;14.48;;;14.10;99.90;;;;;;5015263;28;20407;-72
2022/10/17 07:14:01;;;;;;;22.60;15.88;;;14.10;99.90;;;;;;5015357;28;20040;-72
2022/10/17 07:16:27;;;;;;;25.17;15.18;;;14.10;99.90;;;;;;5014966;28;20497;-72
2022/10/17 07:18:53;;;;;;;26.63;15.52;;;14.20;99.90;;;;;;4999950;28;20038;-72
2022/10/17 07:21:19;;;;;;;21.15;15.85;;;14.20;99.90;;;;;;5014790;28;20037;-72
2022/10/17 07:23:45;;;;;;;21.23;15.05;;;14.20;99.90;;;;;;5014864;28;20049;-72
2022/10/17 07:26:13;;;;;;;23.80;15.18;;;14.30;99.90;;;;;;5032708;28;20040;-72
2022/10/17 07:28:42;;;;;;;21.98;14.70;;;14.40;99.90;;;;;;4998459;28;20037;-72
2022/10/17 07:31:15;;;;;;;18.75;14.50;;;14.50;99.90;;;;;;5015033;28;20062;-72
2022/10/17 07:33:45;;;;;;;21.05;14.27;;;14.60;99.90;;;;;;5014625;28;20661;-72
2022/10/17 07:36:11;;;;;;;19.20;14.90;;;14.70;99.90;;;;;;5014725;28;20060;-72
2022/10/17 07:38:37;;;;;;;19.85;14.00;;;14.90;99.90;;;;;;5014418;28;20037;-72
2022/10/17 07:41:05;;;;;;;18.63;13.93;;;15.10;99.90;;;;;;4975977;28;20062;-72
2022/10/17 07:43:32;;;;;;;18.75;12.95;;;15.30;99.90;;;;;;4992026;28;20038;-72
2022/10/17 07:45:59;;;;;;;16.92;12.48;;;15.40;99.90;;;;;;4992501;28;20113;-72
2022/10/17 07:48:25;;;;;;;16.50;12.55;;;15.50;99.90;;;;;;4991864;28;20183;-72
2022/10/17 07:50:51;;;;;;;16.08;11.88;;;15.60;99.90;;;;;;4991386;28;20044;-72
2022/10/17 07:53:17;;;;;;;18.25;12.18;;;15.70;99.90;;;;;;4992752;28;20129;-72
2022/10/17 07:55:45;;;;;;;21.02;11.80;;;15.70;99.90;;;;;;4991249;28;20039;-72
2022/10/17 07:58:11;;;;;;;20.25;11.20;;;15.90;99.90;;;;;;4988970;28;20042;-71
2022/10/17 08:00:37;;;;;;;15.02;10.73;;;16.00;99.90;;;;;;4975111;28;20066;-71
2022/10/17 08:03:03;;;;;;;12.57;9.68;;;16.00;99.90;;;;;;4991128;28;20117;-72
2022/10/17 08:05:30;;;;;;;12.90;9.70;;;16.00;99.90;;;;;;4975083;28;20041;-71
2022/10/17 08:07:56;;;;;;;13.57;9.57;;;16.10;99.90;;;;;;4959037;28;20038;-71
2022/10/17 08:10:28;;;;;;;13.45;8.88;;;16.10;99.90;;;;;;4975408;28;20051;-72
2022/10/17 08:12:55;;;;;;;;;;;16.20;99.90;;;;;;4974890;28;20129;-71
2022/10/17 08:15:21;;;;;;;16.10;8.93;;;16.30;99.90;;;;;;4991091;28;19925;-71
2022/10/17 08:17:47;;;;;;;13.20;8.75;;;16.30;99.90;;;;;;4991389;28;20030;-71
2022/10/17 08:20:13;;;;;;;16.60;9.70;;;16.30;99.90;;;;;;4990248;28;20099;-71
2022/10/17 08:22:39;;;;;;;13.82;9.07;;;16.30;99.90;;;;;;4974712;28;20038;-71
2022/10/17 08:25:05;;;;;;;15.85;9.20;;;16.30;99.90;;;;;;4974316;28;20050;-71
2022/10/17 08:27:34;;;;;;;13.60;8.25;;;16.40;99.90;;;;;;4990967;28;20548;-71
2022/10/17 08:30:00;;;;;;;12.32;9.13;;;16.40;99.90;;;;;;4991068;28;20038;-71
2022/10/17 08:32:28;;;;;;;11.15;8.13;;;16.50;99.90;;;;;;4990690;28;20100;-71
2022/10/17 08:34:55;;;;;;;13.35;8.02;;;16.60;99.90;;;;;;4974879;28;20035;-71
2022/10/17 08:37:24;;;;;;;22.85;7.88;;;16.60;99.90;;;;;;4977917;28;20511;-71
2022/10/17 08:39:49;;;;;;;11.25;7.85;;;16.60;99.90;;;;;;5009307;28;20411;-71
2022/10/17 08:42:48;;;;;;;9.98;7.97;;;16.60;99.90;;;;;;4997100;28;20045;-71
2022/10/17 08:45:32;;;;;;;10.30;7.18;;;16.60;99.90;;;;;;5014258;28;20180;-71
2022/10/17 08:48:03;;;;;;;13.18;8.52;;;16.70;99.90;;;;;;4998390;28;20041;-71
2022/10/17 08:50:32;;;;;;;11.27;8.13;;;16.70;99.90;;;;;;4997290;28;20053;-71
2022/10/17 08:53:08;;;;;;;12.25;8.57;;;16.70;99.90;;;;;;5013214;28;20522;-71
2022/10/17 08:55:40;;;;;;;14.25;8.50;;;16.70;99.90;;;;;;5013606;28;20037;-71
2022/10/17 08:58:26;;;;;;;10.82;7.45;;;16.70;99.90;;;;;;5013413;28;20061;-71
2022/10/17 09:01:09;;;;;;;11.75;8.25;;;16.80;99.90;;;;;;5010670;28;20317;-71
2022/10/17 09:03:57;;;;;;;11.13;7.55;;;16.80;99.90;;;;;;5029277;28;20109;-71
2022/10/17 09:06:35;;;;;;;11.48;7.45;;;16.80;99.90;;;;;;5032332;28;20032;-71
2022/10/17 09:09:15;;;;;;;16.98;8.20;;;16.90;99.90;;;;;;5012545;28;20402;-71
2022/10/17 09:11:46;;;;;;;10.40;7.53;;;16.90;99.90;;;;;;4996431;28;20051;-72
2022/10/17 09:14:33;;;;;;;12.52;7.25;;;16.90;99.90;;;;;;5014079;28;20116;-72
2022/10/17 09:17:02;;;;;;;13.52;8.10;;;16.90;99.90;;;;;;5010465;28;20376;-71
2022/10/17 09:19:34;;;;;;;14.25;8.30;;;16.90;99.90;;;;;;5011272;28;20034;-71
2022/10/17 09:22:02;;;;;;;15.32;8.40;;;17.00;99.90;;;;;;5012601;28;20503;-71
2022/10/17 09:24:38;;;;;;;13.50;7.47;;;17.00;99.90;;;;;;5012849;28;20038;-71
2022/10/17 09:27:13;;;;;;;13.70;8.57;;;17.00;99.90;;;;;;5010503;28;20039;-72
2022/10/17 09:29:39;;;;;;;12.23;7.85;;;17.00;99.90;;;;;;5011246;28;20461;-72
2022/10/17 09:32:15;;;;;;;14.18;8.32;;;17.10;99.90;;;;;;4994933;28;20033;-71
2022/10/17 09:34:41;;;;;;;11.32;9.50;;;17.10;99.90;;;;;;5010559;28;20116;-71
2022/10/17 09:37:13;;;;;;;13.50;8.60;;;17.10;99.90;;;;;;4995978;28;20114;-71
2022/10/17 09:39:40;;;;;;;12.15;8.38;;;17.20;99.90;;;;;;5003561;28;20058;-71
2022/10/17 09:42:11;;;;;;;9.98;7.97;;;17.30;99.90;;;;;;4989973;28;20100;-72
2022/10/17 09:44:49;;;;;;;15.63;8.48;;;17.30;99.90;;;;;;4991122;28;20707;-71
2022/10/17 09:47:27;;;;;;;12.07;7.22;;;17.40;99.90;;;;;;4990451;28;20042;-72
2022/10/17 09:49:53;;;;;;;10.63;7.90;;;17.40;99.90;;;;;;4977025;28;20045;-72
2022/10/17 09:52:35;;;;;;;11.40;8.10;;;17.40;99.90;;;;;;4979083;28;20035;-72
2022/10/17 09:55:31;;;;;;;11.52;8.15;;;17.40;99.90;;;;;;4989394;28;20472;-71
2022/10/17 09:58:00;;;;;;;12.82;7.78;;;17.40;99.90;;;;;;4989388;28;20082;-72
2022/10/17 10:00:36;;;;;;;14.52;9.55;;;17.40;99.90;;;;;;4992208;28;20042;-72
2022/10/17 10:03:22;;;;;;;12.43;8.30;;;17.40;99.90;;;;;;4975213;28;20030;-71
2022/10/17 10:05:59;;;;;;;12.68;8.65;;;17.40;99.90;;;;;;4991594;28;20030;-71
2022/10/17 10:08:47;;;;;;;12.40;8.60;;;17.40;99.90;;;;;;4988959;28;20160;-72
2022/10/17 10:11:13;;;;;;;10.38;8.05;;;17.30;99.90;;;;;;4988655;28;20499;-72
2022/10/17 10:13:39;;;;;;;12.23;8.95;;;17.30;99.90;;;;;;4989773;28;20165;-72
2022/10/17 10:16:23;;;;;;;14.15;9.25;;;17.20;99.90;;;;;;4989281;28;20066;-72
2022/10/17 10:18:50;;;;;;;15.00;9.68;;;17.10;99.90;;;;;;4989901;28;20409;-72
2022/10/17 10:21:20;;;;;;;12.95;9.02;;;17.10;99.90;;;;;;4989088;28;20092;-72
2022/10/17 10:24:04;;;;;;;14.82;9.65;;;17.00;99.90;;;;;;4991965;28;20041;-72
2022/10/17 10:26:45;;;;;;;15.88;10.10;;;16.90;99.90;;;;;;4990429;28;20104;-72
2022/10/17 10:29:29;;;;;;;13.40;10.00;;;16.90;99.90;;;;;;4972463;28;20034;-73
2022/10/17 10:32:17;;;;;;;16.20;11.10;;;16.80;99.90;;;;;;4972951;28;20038;-72
2022/10/17 10:35:06;;;;;;;17.05;10.32;;;16.80;99.90;;;;;;4975538;28;20435;-72
2022/10/17 10:37:40;;;;;;;18.77;11.10;;;16.70;99.90;;;;;;4972953;28;20392;-73
2022/10/17 10:40:29;;;;;;;21.00;11.50;;;16.60;99.90;;;;;;4983806;28;20567;-72
2022/10/17 10:42:57;;;;;;;18.10;10.98;;;16.60;99.90;;;;;;4984570;28;20512;-72
2022/10/17 10:45:39;;;;;;;15.05;11.40;;;16.50;99.90;;;;;;4993195;28;20354;-72
2022/10/17 10:48:20;;;;;;;13.88;11.13;;;16.50;99.90;;;;;;4985223;28;20053;-72
2022/10/17 10:50:48;;;;;;;14.52;11.93;;;16.50;99.90;;;;;;4980597;28;20492;-72
2022/10/17 10:53:35;;;;;;;18.77;11.93;;;16.50;99.90;;;;;;4981267;28;20443;-73
2022/10/17 10:56:09;;;;;;;17.65;12.77;;;16.40;99.90;;;;;;4982801;28;20045;-73
2022/10/17 10:59:01;;;;;;;18.00;12.35;;;16.40;99.90;;;;;;4980441;28;20038;-73
2022/10/17 11:01:48;;;;;;;17.23;12.30;;;16.30;99.90;;;;;;4977395;28;20053;-72
2022/10/17 11:04:53;;;;;;;20.00;12.63;;;16.30;99.90;;;;;;4974906;28;20091;-72
2022/10/17 11:07:32;;;;;;;16.90;12.40;;;16.30;99.90;;;;;;4947489;28;20502;-72
2022/10/17 11:10:20;;;;;;;19.65;12.18;;;16.30;99.90;;;;;;4981637;28;20038;-72
2022/10/17 11:12:58;;;;;;;24.73;14.95;;;16.30;99.90;;;;;;4978996;28;20046;-72
2022/10/17 11:15:33;;;;;;;15.05;11.93;;;16.30;99.90;;;;;;4980887;28;20129;-72
2022/10/17 11:18:01;;;;;;;16.17;13.25;;;16.30;99.90;;;;;;4967958;28;20232;-72
2022/10/17 11:20:41;;;;;;;19.02;13.05;;;16.30;99.90;;;;;;4976397;28;20550;-72
2022/10/17 11:23:22;;;;;;;18.30;13.27;;;16.30;99.90;;;;;;4980503;28;20333;-72
2022/10/17 11:25:51;;;;;;;21.30;14.90;;;16.30;99.90;;;;;;4978857;28;20049;-72
2022/10/17 11:28:20;;;;;;;26.88;14.48;;;16.30;99.90;;;;;;4979169;28;20438;-72
2022/10/17 11:30:52;;;;;;;16.48;13.15;;;16.30;99.90;;;;;;4978307;28;20031;-72
2022/10/17 11:33:27;;;;;;;;;;;16.30;99.90;;;;;;4979962;28;20053;-72
2022/10/17 11:36:00;;;;;;;19.77;13.80;;;16.40;99.90;;;;;;4980313;28;19917;-72
2022/10/17 11:38:46;;;;;;;17.02;12.85;;;16.30;99.90;;;;;;4962456;28;20128;-72
2022/10/17 11:41:36;;;;;;;18.98;13.23;;;16.30;99.90;;;;;;4961984;28;20098;-72
2022/10/17 11:44:18;;;;;;;21.80;13.80;;;16.30;99.90;;;;;;4978442;28;20464;-72
2022/10/17 11:46:47;;;;;;;18.27;13.75;;;16.30;99.90;;;;;;4960961;28;20503;-71
2022/10/17 11:49:22;;;;;;;22.13;14.23;;;16.30;99.90;;;;;;4962508;28;20046;-72
2022/10/17 11:51:52;;;;;;;18.23;13.15;;;16.30;99.90;;;;;;4962799;28;20360;-72
2022/10/17 11:54:27;;;;;;;17.73;13.75;;;16.30;99.90;;;;;;4975991;28;20034;-71
2022/10/17 11:57:14;;;;;;;16.98;12.20;;;16.30;99.90;;;;;;4977566;28;20032;-72
2022/10/17 12:00:17;;;;;;;13.00;10.80;;;16.30;99.90;;;;;;4974364;28;21310;-72
2022/10/17 12:02:55;;;;;;;20.42;12.18;;;16.30;99.90;;;;;;4964426;28;20046;-70
2022/10/17 12:06:02;;;;;;;14.30;11.30;;;16.30;99.90;;;;;;4977667;28;20134;-72
2022/10/17 12:08:33;;;;;;;16.63;10.70;;;16.30;99.90;;;;;;4975673;28;20499;-72
2022/10/17 12:11:33;;;;;;;17.02;10.77;;;16.30;99.90;;;;;;4981580;28;20030;-72
2022/10/17 12:13:59;;;;;;;15.88;10.32;;;16.30;99.90;;;;;;4980944;28;20050;-72
2022/10/17 12:16:28;;;;;;;13.30;10.20;;;16.20;99.90;;;;;;4964639;28;20041;-72
2022/10/17 12:19:00;;;;;;;12.40;9.55;;;16.20;99.90;;;;;;4978998;28;20408;-72
2022/10/17 12:21:46;;;;;;;14.57;10.30;;;16.20;99.90;;;;;;4960634;28;20038;-72
2022/10/17 12:24:35;;;;;;;11.40;9.90;;;16.20;99.90;;;;;;4963206;28;20129;-72
2022/10/17 12:27:21;;;;;;;12.13;9.13;;;16.20;99.90;;;;;;4962482;28;20053;-69
2022/10/17 12:29:47;;;;;;;10.70;8.77;;;16.20;99.90;;;;;;4975796;28;20078;-70
2022/10/17 12:32:14;;;;;;;14.35;9.00;;;16.10;99.90;;;;;;4960343;28;20050;-70
2022/10/17 12:34:54;;;;;;;15.02;9.23;;;16.20;99.90;;;;;;4964107;28;20093;-70
2022/10/17 12:37:41;;;;;;;11.75;8.15;;;16.20;99.90;;;;;;4978323;28;20049;-70
2022/10/17 12:40:34;;;;;;;10.50;9.10;;;16.20;99.90;;;;;;4962919;28;20226;-70
2022/10/17 12:43:00;;;;;;;12.68;9.15;;;16.20;99.90;;;;;;4939138;28;20073;-70
2022/10/17 12:45:56;;;;;;;12.48;9.30;;;16.20;99.90;;;;;;4958068;28;20069;-70
2022/10/17 12:48:37;;;;;;;11.65;9.35;;;16.30;99.90;;;;;;4972323;28;20030;-70
2022/10/17 12:51:16;;;;;;;13.38;9.60;;;16.30;99.90;;;;;;4964792;28;20681;-70
2022/10/17 12:53:45;;;;;;;20.65;10.48;;;16.30;99.90;;;;;;4973079;28;20066;-70
2022/10/17 12:56:37;;;;;;;11.98;8.60;;;16.40;99.90;;;;;;4972581;28;20053;-70